<?xml version="1.0" encoding="UTF-8" standalone="no" ?>
<gpx xmlns="http://www.topografix.com/GPX/1/1" xmlns:xsi="http://www.w3.org/2001/XMLSchema-instance" xsi:schemaLocation="http://www.topografix.com/GPX/1/1 http://www.topografix.com/GPX/1/1/gpx.xsd" version="1.1" creator="VisuGPX - https://www.visugpx.com">
  <metadata>
    <name>Batz_leCroisic_12km</name>
    <desc><![CDATA[gnerando idor: 14411999_14484932]]></desc>
  </metadata>
  <trk>
    <name><![CDATA[Batz_LePouliguen_12.3km-14484932]]></name>
    <extensions>
      <line xmlns="http://www.topografix.com/GPX/gpx_style/0/2">
        <color>0000FF</color>
        <width>4</width>
      </line>
    </extensions>
    <trkseg>
      <trkpt lat="47.28092" lon="-2.47898">
        <ele>6</ele>
        <time>2023-10-30T08:35:35Z</time>
      </trkpt>
      <trkpt lat="47.28076" lon="-2.47956">
        <ele>6</ele>
        <time>2023-10-30T08:36:32Z</time>
      </trkpt>
      <trkpt lat="47.28141" lon="-2.48353">
        <ele>7</ele>
        <time>2023-10-30T08:42:41Z</time>
      </trkpt>
      <trkpt lat="47.28236" lon="-2.48353">
        <ele>5</ele>
        <time>2023-10-30T08:44:48Z</time>
      </trkpt>
      <trkpt lat="47.28264" lon="-2.48375">
        <ele>4</ele>
        <time>2023-10-30T08:45:31Z</time>
      </trkpt>
      <trkpt lat="47.28291" lon="-2.48364">
        <ele>3</ele>
        <time>2023-10-30T08:46:08Z</time>
      </trkpt>
      <trkpt lat="47.28281" lon="-2.48267">
        <ele>3</ele>
        <time>2023-10-30T08:47:37Z</time>
      </trkpt>
      <trkpt lat="47.2838" lon="-2.4822">
        <ele>1</ele>
        <time>2023-10-30T08:49:56Z</time>
      </trkpt>
      <trkpt lat="47.28424" lon="-2.48231">
        <ele>2.8</ele>
        <time>2023-10-30T08:50:55Z</time>
      </trkpt>
      <trkpt lat="47.28454" lon="-2.48192">
        <ele>2.7</ele>
        <time>2023-10-30T08:51:48Z</time>
      </trkpt>
      <trkpt lat="47.28504" lon="-2.48186">
        <ele>1.4</ele>
        <time>2023-10-30T08:52:55Z</time>
      </trkpt>
      <trkpt lat="47.28569" lon="-2.48304">
        <ele>2</ele>
        <time>2023-10-30T08:55:13Z</time>
      </trkpt>
      <trkpt lat="47.28495" lon="-2.4831">
        <ele>2</ele>
        <time>2023-10-30T08:56:52Z</time>
      </trkpt>
      <trkpt lat="47.28473" lon="-2.48379">
        <ele>2</ele>
        <time>2023-10-30T08:58:01Z</time>
      </trkpt>
      <trkpt lat="47.28443" lon="-2.48394">
        <ele>3.1</ele>
        <time>2023-10-30T08:58:43Z</time>
      </trkpt>
      <trkpt lat="47.28393" lon="-2.48353">
        <ele>1</ele>
        <time>2023-10-30T09:00:00Z</time>
      </trkpt>
      <trkpt lat="47.28336" lon="-2.4836">
        <ele>2</ele>
        <time>2023-10-30T09:01:16Z</time>
      </trkpt>
      <trkpt lat="47.283" lon="-2.48388">
        <ele>3</ele>
        <time>2023-10-30T09:02:10Z</time>
      </trkpt>
      <trkpt lat="47.28237" lon="-2.48336">
        <ele>4</ele>
        <time>2023-10-30T09:03:47Z</time>
      </trkpt>
      <trkpt lat="47.28117" lon="-2.48362">
        <ele>8</ele>
        <time>2023-10-30T09:06:28Z</time>
      </trkpt>
      <trkpt lat="47.28045" lon="-2.48336">
        <ele>8</ele>
        <time>2023-10-30T09:08:07Z</time>
      </trkpt>
      <trkpt lat="47.2799" lon="-2.47965">
        <ele>8</ele>
        <time>2023-10-30T09:13:51Z</time>
      </trkpt>
      <trkpt lat="47.27718" lon="-2.48079">
        <ele>18</ele>
        <time>2023-10-30T09:20:08Z</time>
      </trkpt>
      <trkpt lat="47.2761" lon="-2.481">
        <ele>17</ele>
        <time>2023-10-30T09:22:34Z</time>
      </trkpt>
      <trkpt lat="47.27398" lon="-2.48136">
        <ele>9</ele>
        <time>2023-10-30T09:27:19Z</time>
      </trkpt>
      <trkpt lat="47.27275" lon="-2.48096">
        <ele>5</ele>
        <time>2023-10-30T09:30:07Z</time>
      </trkpt>
      <trkpt lat="47.27403" lon="-2.48132">
        <ele>9</ele>
        <time>2023-10-30T09:33:01Z</time>
      </trkpt>
      <trkpt lat="47.27432" lon="-2.48367">
        <ele>5</ele>
        <time>2023-10-30T09:36:37Z</time>
      </trkpt>
      <trkpt lat="47.27466" lon="-2.48648">
        <ele>4</ele>
        <time>2023-10-30T09:40:55Z</time>
      </trkpt>
      <trkpt lat="47.2753" lon="-2.48753">
        <ele>6</ele>
        <time>2023-10-30T09:43:03Z</time>
      </trkpt>
      <trkpt lat="47.2751" lon="-2.48915">
        <ele>4</ele>
        <time>2023-10-30T09:45:32Z</time>
      </trkpt>
      <trkpt lat="47.27557" lon="-2.49125">
        <ele>6</ele>
        <time>2023-10-30T09:48:52Z</time>
      </trkpt>
      <trkpt lat="47.27576" lon="-2.49236">
        <ele>6</ele>
        <time>2023-10-30T09:50:36Z</time>
      </trkpt>
      <trkpt lat="47.27518" lon="-2.49381">
        <ele>1</ele>
        <time>2023-10-30T09:53:08Z</time>
      </trkpt>
      <trkpt lat="47.27576" lon="-2.49244">
        <ele>6</ele>
        <time>2023-10-30T09:55:35Z</time>
      </trkpt>
      <trkpt lat="47.27826" lon="-2.49273">
        <ele>8</ele>
        <time>2023-10-30T10:01:09Z</time>
      </trkpt>
      <trkpt lat="47.27993" lon="-2.49305">
        <ele>6</ele>
        <time>2023-10-30T10:04:54Z</time>
      </trkpt>
      <trkpt lat="47.28027" lon="-2.49507">
        <ele>7</ele>
        <time>2023-10-30T10:08:02Z</time>
      </trkpt>
      <trkpt lat="47.28105" lon="-2.49623">
        <ele>7</ele>
        <time>2023-10-30T10:10:30Z</time>
      </trkpt>
      <trkpt lat="47.28137" lon="-2.4976">
        <ele>8</ele>
        <time>2023-10-30T10:12:41Z</time>
      </trkpt>
      <trkpt lat="47.28203" lon="-2.50153">
        <ele>6</ele>
        <time>2023-10-30T10:18:48Z</time>
      </trkpt>
      <trkpt lat="47.28098" lon="-2.50186">
        <ele>5</ele>
        <time>2023-10-30T10:21:11Z</time>
      </trkpt>
      <trkpt lat="47.28083" lon="-2.50388">
        <ele>4</ele>
        <time>2023-10-30T10:24:15Z</time>
      </trkpt>
      <trkpt lat="47.28034" lon="-2.50413">
        <ele>3</ele>
        <time>2023-10-30T10:25:24Z</time>
      </trkpt>
      <trkpt lat="47.28029" lon="-2.50528">
        <ele>2</ele>
        <time>2023-10-30T10:27:09Z</time>
      </trkpt>
      <trkpt lat="47.28127" lon="-2.50601">
        <ele>4</ele>
        <time>2023-10-30T10:29:35Z</time>
      </trkpt>
      <trkpt lat="47.28211" lon="-2.50806">
        <ele>4</ele>
        <time>2023-10-30T10:33:12Z</time>
      </trkpt>
      <trkpt lat="47.28274" lon="-2.51131">
        <ele>4</ele>
        <time>2023-10-30T10:38:18Z</time>
      </trkpt>
      <trkpt lat="47.28333" lon="-2.5123">
        <ele>3</ele>
        <time>2023-10-30T10:40:17Z</time>
      </trkpt>
      <trkpt lat="47.28411" lon="-2.51293">
        <ele>6</ele>
        <time>2023-10-30T10:42:16Z</time>
      </trkpt>
      <trkpt lat="47.28443" lon="-2.51395">
        <ele>7</ele>
        <time>2023-10-30T10:43:58Z</time>
      </trkpt>
      <trkpt lat="47.28519" lon="-2.51492">
        <ele>7</ele>
        <time>2023-10-30T10:46:12Z</time>
      </trkpt>
      <trkpt lat="47.28551" lon="-2.51766">
        <ele>6</ele>
        <time>2023-10-30T10:50:24Z</time>
      </trkpt>
      <trkpt lat="47.28624" lon="-2.51889">
        <ele>8</ele>
        <time>2023-10-30T10:52:52Z</time>
      </trkpt>
      <trkpt lat="47.28644" lon="-2.52044">
        <ele>8</ele>
        <time>2023-10-30T10:55:14Z</time>
      </trkpt>
      <trkpt lat="47.28622" lon="-2.52178">
        <ele>4</ele>
        <time>2023-10-30T10:57:19Z</time>
      </trkpt>
      <trkpt lat="47.287" lon="-2.52232">
        <ele>7</ele>
        <time>2023-10-30T10:59:14Z</time>
      </trkpt>
      <trkpt lat="47.28732" lon="-2.52376">
        <ele>9</ele>
        <time>2023-10-30T11:01:31Z</time>
      </trkpt>
      <trkpt lat="47.28709" lon="-2.52605">
        <ele>6</ele>
        <time>2023-10-30T11:05:01Z</time>
      </trkpt>
      <trkpt lat="47.28744" lon="-2.53103">
        <ele>9</ele>
        <time>2023-10-30T11:12:34Z</time>
      </trkpt>
      <trkpt lat="47.28988" lon="-2.52837">
        <ele>14</ele>
        <time>2023-10-30T11:19:19Z</time>
      </trkpt>
      <trkpt lat="47.29035" lon="-2.52691">
        <ele>14</ele>
        <time>2023-10-30T11:21:45Z</time>
      </trkpt>
      <trkpt lat="47.29035" lon="-2.52468">
        <ele>13</ele>
        <time>2023-10-30T11:25:07Z</time>
      </trkpt>
      <trkpt lat="47.29245" lon="-2.52485">
        <ele>11</ele>
        <time>2023-10-30T11:29:48Z</time>
      </trkpt>
      <trkpt lat="47.29383" lon="-2.52775">
        <ele>9</ele>
        <time>2023-10-30T11:35:08Z</time>
      </trkpt>
      <trkpt lat="47.29461" lon="-2.53049">
        <ele>6</ele>
        <time>2023-10-30T11:39:37Z</time>
      </trkpt>
      <trkpt lat="47.29618" lon="-2.53038">
        <ele>5</ele>
        <time>2023-10-30T11:43:07Z</time>
      </trkpt>
      <trkpt lat="47.29716" lon="-2.52898">
        <ele>3</ele>
        <time>2023-10-30T11:46:09Z</time>
      </trkpt>
      <trkpt lat="47.29897" lon="-2.5297">
        <ele>4</ele>
        <time>2023-10-30T11:50:19Z</time>
      </trkpt>
      <trkpt lat="47.2997" lon="-2.52948">
        <ele>3</ele>
        <time>2023-10-30T11:51:59Z</time>
      </trkpt>
      <trkpt lat="47.30049" lon="-2.53013">
        <ele>2</ele>
        <time>2023-10-30T11:54:00Z</time>
      </trkpt>
      <trkpt lat="47.30112" lon="-2.52811">
        <ele>3</ele>
        <time>2023-10-30T11:57:21Z</time>
      </trkpt>
      <trkpt lat="47.30201" lon="-2.52544">
        <ele>2</ele>
        <time>2023-10-30T12:01:50Z</time>
      </trkpt>
      <trkpt lat="47.30127" lon="-2.52263">
        <ele>3</ele>
        <time>2023-10-30T12:06:23Z</time>
      </trkpt>
      <trkpt lat="47.30108" lon="-2.52075">
        <ele>3</ele>
        <time>2023-10-30T12:09:15Z</time>
      </trkpt>
      <trkpt lat="47.2999" lon="-2.51895">
        <ele>1</ele>
        <time>2023-10-30T12:13:01Z</time>
      </trkpt>
      <trkpt lat="47.29897" lon="-2.51613">
        <ele>2</ele>
        <time>2023-10-30T12:17:45Z</time>
      </trkpt>
      <trkpt lat="47.29755" lon="-2.5149">
        <ele>5</ele>
        <time>2023-10-30T12:21:25Z</time>
      </trkpt>
      <trkpt lat="47.2954" lon="-2.51324">
        <ele>6</ele>
        <time>2023-10-30T12:26:49Z</time>
      </trkpt>
      <trkpt lat="47.29393" lon="-2.51">
        <ele>7</ele>
        <time>2023-10-30T12:32:42Z</time>
      </trkpt>
      <trkpt lat="47.29217" lon="-2.5087">
        <ele>5</ele>
        <time>2023-10-30T12:37:04Z</time>
      </trkpt>
      <trkpt lat="47.28972" lon="-2.50704">
        <ele>4</ele>
        <time>2023-10-30T12:43:04Z</time>
      </trkpt>
    </trkseg>
  </trk>
  <trk>
    <name><![CDATA[Batz_LeCroisic_12km-14411999]]></name>
    <extensions>
      <line xmlns="http://www.topografix.com/GPX/gpx_style/0/2">
        <color>00FF00</color>
        <width>4</width>
      </line>
    </extensions>
    <trkseg>
      <trkpt lat="47.28064" lon="-2.48042">
        <ele>6</ele>
        <time>2023-10-30T08:35:12Z</time>
      </trkpt>
      <trkpt lat="47.2805" lon="-2.47925">
        <ele>7</ele>
        <time>2023-10-30T08:37:00Z</time>
      </trkpt>
      <trkpt lat="47.27408" lon="-2.48118">
        <ele>10</ele>
        <time>2023-10-30T08:51:34Z</time>
      </trkpt>
      <trkpt lat="47.2748" lon="-2.48684">
        <ele>4</ele>
        <time>2023-10-30T09:00:15Z</time>
      </trkpt>
      <trkpt lat="47.27556" lon="-2.48688">
        <ele>7</ele>
        <time>2023-10-30T09:01:57Z</time>
      </trkpt>
      <trkpt lat="47.27501" lon="-2.48804">
        <ele>5</ele>
        <time>2023-10-30T09:04:05Z</time>
      </trkpt>
      <trkpt lat="47.27571" lon="-2.49221">
        <ele>6</ele>
        <time>2023-10-30T09:10:34Z</time>
      </trkpt>
      <trkpt lat="47.27865" lon="-2.49264">
        <ele>7</ele>
        <time>2023-10-30T09:17:08Z</time>
      </trkpt>
      <trkpt lat="47.27806" lon="-2.49431">
        <ele>7</ele>
        <time>2023-10-30T09:19:59Z</time>
      </trkpt>
      <trkpt lat="47.27993" lon="-2.4968">
        <ele>7</ele>
        <time>2023-10-30T09:25:35Z</time>
      </trkpt>
      <trkpt lat="47.28109" lon="-2.49607">
        <ele>7</ele>
        <time>2023-10-30T09:28:23Z</time>
      </trkpt>
      <trkpt lat="47.28191" lon="-2.50139">
        <ele>7</ele>
        <time>2023-10-30T09:36:37Z</time>
      </trkpt>
      <trkpt lat="47.2829" lon="-2.50319">
        <ele>3</ele>
        <time>2023-10-30T09:40:07Z</time>
      </trkpt>
      <trkpt lat="47.28194" lon="-2.50744">
        <ele>3</ele>
        <time>2023-10-30T09:46:52Z</time>
      </trkpt>
      <trkpt lat="47.28234" lon="-2.51062">
        <ele>4</ele>
        <time>2023-10-30T09:51:45Z</time>
      </trkpt>
      <trkpt lat="47.28421" lon="-2.51293">
        <ele>7</ele>
        <time>2023-10-30T09:57:11Z</time>
      </trkpt>
      <trkpt lat="47.28511" lon="-2.51529">
        <ele>5</ele>
        <time>2023-10-30T10:01:16Z</time>
      </trkpt>
      <trkpt lat="47.28546" lon="-2.51817">
        <ele>3</ele>
        <time>2023-10-30T10:05:41Z</time>
      </trkpt>
      <trkpt lat="47.28636" lon="-2.521">
        <ele>6</ele>
        <time>2023-10-30T10:10:24Z</time>
      </trkpt>
      <trkpt lat="47.28622" lon="-2.52208">
        <ele>3</ele>
        <time>2023-10-30T10:12:03Z</time>
      </trkpt>
      <trkpt lat="47.28703" lon="-2.52306">
        <ele>6</ele>
        <time>2023-10-30T10:14:23Z</time>
      </trkpt>
      <trkpt lat="47.28689" lon="-2.52632">
        <ele>4</ele>
        <time>2023-10-30T10:19:19Z</time>
      </trkpt>
      <trkpt lat="47.28718" lon="-2.53074">
        <ele>7</ele>
        <time>2023-10-30T10:26:01Z</time>
      </trkpt>
      <trkpt lat="47.28817" lon="-2.53268">
        <ele>9</ele>
        <time>2023-10-30T10:29:40Z</time>
      </trkpt>
      <trkpt lat="47.28881" lon="-2.53624">
        <ele>7</ele>
        <time>2023-10-30T10:35:14Z</time>
      </trkpt>
      <trkpt lat="47.29055" lon="-2.54362">
        <ele>3</ele>
        <time>2023-10-30T10:47:01Z</time>
      </trkpt>
      <trkpt lat="47.29006" lon="-2.54482">
        <ele>3</ele>
        <time>2023-10-30T10:49:08Z</time>
      </trkpt>
      <trkpt lat="47.29044" lon="-2.54564">
        <ele>2</ele>
        <time>2023-10-30T10:50:38Z</time>
      </trkpt>
      <trkpt lat="47.29084" lon="-2.54555">
        <ele>3</ele>
        <time>2023-10-30T10:51:32Z</time>
      </trkpt>
      <trkpt lat="47.29245" lon="-2.54727">
        <ele>2</ele>
        <time>2023-10-30T10:55:57Z</time>
      </trkpt>
      <trkpt lat="47.29472" lon="-2.54705">
        <ele>2</ele>
        <time>2023-10-30T11:01:01Z</time>
      </trkpt>
      <trkpt lat="47.298" lon="-2.54473">
        <ele>3</ele>
        <time>2023-10-30T11:09:06Z</time>
      </trkpt>
      <trkpt lat="47.2987" lon="-2.54332">
        <ele>3</ele>
        <time>2023-10-30T11:11:44Z</time>
      </trkpt>
      <trkpt lat="47.29917" lon="-2.5407">
        <ele>2</ele>
        <time>2023-10-30T11:15:49Z</time>
      </trkpt>
      <trkpt lat="47.29969" lon="-2.53954">
        <ele>1</ele>
        <time>2023-10-30T11:17:55Z</time>
      </trkpt>
      <trkpt lat="47.2992" lon="-2.53649">
        <ele>2</ele>
        <time>2023-10-30T11:22:39Z</time>
      </trkpt>
      <trkpt lat="47.30089" lon="-2.53426">
        <ele>2</ele>
        <time>2023-10-30T11:27:42Z</time>
      </trkpt>
      <trkpt lat="47.30051" lon="-2.53268">
        <ele>3</ele>
        <time>2023-10-30T11:30:13Z</time>
      </trkpt>
      <trkpt lat="47.30048" lon="-2.53044">
        <ele>2</ele>
        <time>2023-10-30T11:33:36Z</time>
      </trkpt>
      <trkpt lat="47.30109" lon="-2.52718">
        <ele>4</ele>
        <time>2023-10-30T11:38:42Z</time>
      </trkpt>
      <trkpt lat="47.30042" lon="-2.52105">
        <ele>5</ele>
        <time>2023-10-30T11:48:04Z</time>
      </trkpt>
      <trkpt lat="47.30097" lon="-2.52057">
        <ele>3</ele>
        <time>2023-10-30T11:49:29Z</time>
      </trkpt>
      <trkpt lat="47.29969" lon="-2.51907">
        <ele>2</ele>
        <time>2023-10-30T11:53:07Z</time>
      </trkpt>
      <trkpt lat="47.29961" lon="-2.51834">
        <ele>3</ele>
        <time>2023-10-30T11:54:14Z</time>
      </trkpt>
      <trkpt lat="47.30004" lon="-2.518">
        <ele>1</ele>
        <time>2023-10-30T11:55:19Z</time>
      </trkpt>
      <trkpt lat="47.2992" lon="-2.51654">
        <ele>2</ele>
        <time>2023-10-30T11:58:13Z</time>
      </trkpt>
      <trkpt lat="47.29862" lon="-2.51478">
        <ele>2</ele>
        <time>2023-10-30T12:01:10Z</time>
      </trkpt>
      <trkpt lat="47.2955" lon="-2.51306">
        <ele>6</ele>
        <time>2023-10-30T12:08:34Z</time>
      </trkpt>
      <trkpt lat="47.29498" lon="-2.5113">
        <ele>6</ele>
        <time>2023-10-30T12:11:28Z</time>
      </trkpt>
      <trkpt lat="47.29378" lon="-2.50942">
        <ele>3</ele>
        <time>2023-10-30T12:15:22Z</time>
      </trkpt>
      <trkpt lat="47.29195" lon="-2.5083">
        <ele>5</ele>
        <time>2023-10-30T12:19:46Z</time>
      </trkpt>
      <trkpt lat="47.29201" lon="-2.50525">
        <ele>5</ele>
        <time>2023-10-30T12:24:22Z</time>
      </trkpt>
      <trkpt lat="47.29125" lon="-2.50474">
        <ele>4</ele>
        <time>2023-10-30T12:26:14Z</time>
      </trkpt>
      <trkpt lat="47.2905" lon="-2.5077">
        <ele>6</ele>
        <time>2023-10-30T12:31:00Z</time>
      </trkpt>
      <trkpt lat="47.28837" lon="-2.5062">
        <ele>4</ele>
        <time>2023-10-30T12:36:15Z</time>
      </trkpt>
    </trkseg>
  </trk>
</gpx>